sensor_id;sensor_type;location;lat;lon;timestamp;temperature;humidity
5392;DHT22;2719;53.624;9.786;2023-03-19T00:02:19;12.60;99.90
5392;DHT22;2719;53.624;9.786;2023-03-19T00:04:46;12.60;99.90
5392;DHT22;2719;53.624;9.786;2023-03-19T00:07:15;12.60;99.90
5392;DHT22;2719;53.624;9.786;2023-03-19T00:09:41;12.50;99.90
5392;DHT22;2719;53.624;9.786;2023-03-19T00:12:09;12.50;99.90
5392;DHT22;2719;53.624;9.786;2023-03-19T00:14:36;12.50;99.90
5392;DHT22;2719;53.624;9.786;2023-03-19T00:17:03;12.50;99.90
5392;DHT22;2719;53.624;9.786;2023-03-19T00:19:29;12.40;99.90
5392;DHT22;2719;53.624;9.786;2023-03-19T00:21:56;12.40;99.90
5392;DHT22;2719;53.624;9.786;2023-03-19T00:24:24;12.40;99.90
5392;DHT22;2719;53.624;9.786;2023-03-19T00:26:51;12.30;99.90
5392;DHT22;2719;53.624;9.786;2023-03-19T00:29:18;12.30;99.90
5392;DHT22;2719;53.624;9.786;2023-03-19T00:31:44;12.20;99.90
5392;DHT22;2719;53.624;9.786;2023-03-19T00:34:12;12.20;99.90
5392;DHT22;2719;53.624;9.786;2023-03-19T00:36:38;12.10;99.90
5392;DHT22;2719;53.624;9.786;2023-03-19T00:39:05;12.10;99.90
5392;DHT22;2719;53.624;9.786;2023-03-19T00:41:34;12.10;99.90
5392;DHT22;2719;53.624;9.786;2023-03-19T00:44:02;12.00;99.90
5392;DHT22;2719;53.624;9.786;2023-03-19T00:46:29;12.00;99.90
5392;DHT22;2719;53.624;9.786;2023-03-19T00:48:55;11.90;99.90
5392;DHT22;2719;53.624;9.786;2023-03-19T00:51:23;11.90;99.90
5392;DHT22;2719;53.624;9.786;2023-03-19T00:53:51;11.90;99.90
5392;DHT22;2719;53.624;9.786;2023-03-19T00:56:18;11.90;99.90
5392;DHT22;2719;53.624;9.786;2023-03-19T00:58:47;11.80;99.90
5392;DHT22;2719;53.624;9.786;2023-03-19T01:01:15;11.80;99.90
5392;DHT22;2719;53.624;9.786;2023-03-19T01:03:43;11.80;99.90
5392;DHT22;2719;53.624;9.786;2023-03-19T01:06:10;11.70;99.90
5392;DHT22;2719;53.624;9.786;2023-03-19T01:08:37;11.70;99.90
5392;DHT22;2719;53.624;9.786;2023-03-19T01:11:06;11.60;99.90
5392;DHT22;2719;53.624;9.786;2023-03-19T01:13:33;11.70;99.90
5392;DHT22;2719;53.624;9.786;2023-03-19T01:16:01;11.60;99.90
5392;DHT22;2719;53.624;9.786;2023-03-19T01:18:28;11.60;99.90
5392;DHT22;2719;53.624;9.786;2023-03-19T01:20:55;11.50;99.90
5392;DHT22;2719;53.624;9.786;2023-03-19T01:23:22;11.50;99.90
5392;DHT22;2719;53.624;9.786;2023-03-19T01:25:48;11.50;99.90
5392;DHT22;2719;53.624;9.786;2023-03-19T01:28:16;11.50;99.90
5392;DHT22;2719;53.624;9.786;2023-03-19T01:30:42;11.40;99.90
5392;DHT22;2719;53.624;9.786;2023-03-19T01:33:10;11.40;99.90
5392;DHT22;2719;53.624;9.786;2023-03-19T01:35:37;11.40;99.90
5392;DHT22;2719;53.624;9.786;2023-03-19T01:38:04;11.40;99.90
5392;DHT22;2719;53.624;9.786;2023-03-19T01:40:32;11.30;99.90
5392;DHT22;2719;53.624;9.786;2023-03-19T01:43:12;11.30;99.90
5392;DHT22;2719;53.624;9.786;2023-03-19T01:45:41;11.30;99.90
5392;DHT22;2719;53.624;9.786;2023-03-19T01:48:17;11.30;99.90
5392;DHT22;2719;53.624;9.786;2023-03-19T01:50:45;11.30;99.90
5392;DHT22;2719;53.624;9.786;2023-03-19T01:53:16;11.40;99.90
5392;DHT22;2719;53.624;9.786;2023-03-19T01:55:45;11.40;99.90
5392;DHT22;2719;53.624;9.786;2023-03-19T01:58:12;11.30;99.90
5392;DHT22;2719;53.624;9.786;2023-03-19T02:00:39;11.40;99.90
5392;DHT22;2719;53.624;9.786;2023-03-19T02:03:07;11.30;99.90
5392;DHT22;2719;53.624;9.786;2023-03-19T02:05:36;11.30;99.90
5392;DHT22;2719;53.624;9.786;2023-03-19T02:08:05;11.30;99.90
5392;DHT22;2719;53.624;9.786;2023-03-19T02:10:32;11.30;99.90
5392;DHT22;2719;53.624;9.786;2023-03-19T02:13:00;11.30;99.90
5392;DHT22;2719;53.624;9.786;2023-03-19T02:15:26;11.30;99.90
5392;DHT22;2719;53.624;9.786;2023-03-19T02:17:53;11.30;99.90
5392;DHT22;2719;53.624;9.786;2023-03-19T02:20:25;11.30;99.90
5392;DHT22;2719;53.624;9.786;2023-03-19T02:23:00;11.30;99.90
5392;DHT22;2719;53.624;9.786;2023-03-19T02:25:33;11.20;99.90
5392;DHT22;2719;53.624;9.786;2023-03-19T02:28:04;11.20;99.90
5392;DHT22;2719;53.624;9.786;2023-03-19T02:30:34;11.20;99.90
5392;DHT22;2719;53.624;9.786;2023-03-19T02:33:01;11.20;99.90
5392;DHT22;2719;53.624;9.786;2023-03-19T02:35:30;11.20;99.90
5392;DHT22;2719;53.624;9.786;2023-03-19T02:38:00;11.10;99.90
5392;DHT22;2719;53.624;9.786;2023-03-19T02:40:29;11.10;99.90
5392;DHT22;2719;53.624;9.786;2023-03-19T02:42:57;11.10;99.90
5392;DHT22;2719;53.624;9.786;2023-03-19T02:45:27;11.10;99.90
5392;DHT22;2719;53.624;9.786;2023-03-19T02:47:55;11.00;99.90
5392;DHT22;2719;53.624;9.786;2023-03-19T02:50:22;11.00;99.90
5392;DHT22;2719;53.624;9.786;2023-03-19T02:52:48;11.00;99.90
5392;DHT22;2719;53.624;9.786;2023-03-19T02:55:15;11.00;99.90
5392;DHT22;2719;53.624;9.786;2023-03-19T02:57:42;10.90;99.90
5392;DHT22;2719;53.624;9.786;2023-03-19T03:00:11;10.90;99.90
5392;DHT22;2719;53.624;9.786;2023-03-19T03:02:39;10.90;99.90
5392;DHT22;2719;53.624;9.786;2023-03-19T03:05:06;10.90;99.90
5392;DHT22;2719;53.624;9.786;2023-03-19T03:07:33;10.90;99.90
5392;DHT22;2719;53.624;9.786;2023-03-19T03:10:00;10.80;99.90
5392;DHT22;2719;53.624;9.786;2023-03-19T03:12:27;10.80;99.90
5392;DHT22;2719;53.624;9.786;2023-03-19T03:14:53;10.80;99.90
5392;DHT22;2719;53.624;9.786;2023-03-19T03:17:21;10.70;99.90
5392;DHT22;2719;53.624;9.786;2023-03-19T03:19:49;10.70;99.90
5392;DHT22;2719;53.624;9.786;2023-03-19T03:22:16;10.60;99.90
5392;DHT22;2719;53.624;9.786;2023-03-19T03:24:42;10.60;99.90
5392;DHT22;2719;53.624;9.786;2023-03-19T03:27:09;10.70;99.90
5392;DHT22;2719;53.624;9.786;2023-03-19T03:29:36;10.60;99.90
5392;DHT22;2719;53.624;9.786;2023-03-19T03:32:03;10.70;99.90
5392;DHT22;2719;53.624;9.786;2023-03-19T03:34:31;10.60;99.90
5392;DHT22;2719;53.624;9.786;2023-03-19T03:36:58;10.60;99.90
5392;DHT22;2719;53.624;9.786;2023-03-19T03:39:25;10.60;99.90
5392;DHT22;2719;53.624;9.786;2023-03-19T03:41:52;10.60;99.90
5392;DHT22;2719;53.624;9.786;2023-03-19T03:44:19;10.60;99.90
5392;DHT22;2719;53.624;9.786;2023-03-19T03:46:46;10.70;99.90
5392;DHT22;2719;53.624;9.786;2023-03-19T03:49:13;10.60;99.90
5392;DHT22;2719;53.624;9.786;2023-03-19T03:51:40;10.60;99.90
5392;DHT22;2719;53.624;9.786;2023-03-19T03:54:08;10.70;99.90
5392;DHT22;2719;53.624;9.786;2023-03-19T03:56:35;10.70;99.90
5392;DHT22;2719;53.624;9.786;2023-03-19T03:59:02;10.60;99.90
5392;DHT22;2719;53.624;9.786;2023-03-19T04:01:29;10.60;99.90
5392;DHT22;2719;53.624;9.786;2023-03-19T04:03:56;10.60;99.90
5392;DHT22;2719;53.624;9.786;2023-03-19T04:06:23;10.60;99.90
5392;DHT22;2719;53.624;9.786;2023-03-19T04:08:50;10.60;99.90
5392;DHT22;2719;53.624;9.786;2023-03-19T04:11:18;10.50;99.90
5392;DHT22;2719;53.624;9.786;2023-03-19T04:13:45;10.50;99.90
5392;DHT22;2719;53.624;9.786;2023-03-19T04:16:12;10.50;99.90
5392;DHT22;2719;53.624;9.786;2023-03-19T04:18:40;10.60;99.90
5392;DHT22;2719;53.624;9.786;2023-03-19T04:21:07;10.60;99.90
5392;DHT22;2719;53.624;9.786;2023-03-19T04:23:34;10.50;99.90
5392;DHT22;2719;53.624;9.786;2023-03-19T04:26:03;10.50;99.90
5392;DHT22;2719;53.624;9.786;2023-03-19T04:28:32;10.50;99.90
5392;DHT22;2719;53.624;9.786;2023-03-19T04:30:59;10.50;99.90
5392;DHT22;2719;53.624;9.786;2023-03-19T04:33:27;10.50;99.90
5392;DHT22;2719;53.624;9.786;2023-03-19T04:35:55;10.50;99.90
5392;DHT22;2719;53.624;9.786;2023-03-19T04:38:22;10.50;99.90
5392;DHT22;2719;53.624;9.786;2023-03-19T04:40:51;10.50;99.90
5392;DHT22;2719;53.624;9.786;2023-03-19T04:43:18;10.40;99.90
5392;DHT22;2719;53.624;9.786;2023-03-19T04:45:46;10.40;99.90
5392;DHT22;2719;53.624;9.786;2023-03-19T04:48:12;10.40;99.90
5392;DHT22;2719;53.624;9.786;2023-03-19T04:50:39;10.40;99.90
5392;DHT22;2719;53.624;9.786;2023-03-19T04:53:06;10.40;99.90
5392;DHT22;2719;53.624;9.786;2023-03-19T04:55:33;10.40;99.90
5392;DHT22;2719;53.624;9.786;2023-03-19T04:58:00;10.40;99.90
5392;DHT22;2719;53.624;9.786;2023-03-19T05:00:27;10.30;99.90
5392;DHT22;2719;53.624;9.786;2023-03-19T05:02:56;10.30;99.90
5392;DHT22;2719;53.624;9.786;2023-03-19T05:05:23;10.30;99.90
5392;DHT22;2719;53.624;9.786;2023-03-19T05:07:49;10.30;99.90
5392;DHT22;2719;53.624;9.786;2023-03-19T05:10:16;10.30;99.90
5392;DHT22;2719;53.624;9.786;2023-03-19T05:12:43;10.30;99.90
5392;DHT22;2719;53.624;9.786;2023-03-19T05:15:10;10.30;99.90
5392;DHT22;2719;53.624;9.786;2023-03-19T05:17:37;10.30;99.90
5392;DHT22;2719;53.624;9.786;2023-03-19T05:20:06;10.20;99.90
5392;DHT22;2719;53.624;9.786;2023-03-19T05:22:33;10.20;99.90
5392;DHT22;2719;53.624;9.786;2023-03-19T05:25:00;10.20;99.90
5392;DHT22;2719;53.624;9.786;2023-03-19T05:27:27;10.20;99.90
5392;DHT22;2719;53.624;9.786;2023-03-19T05:29:53;10.20;99.90
5392;DHT22;2719;53.624;9.786;2023-03-19T05:32:20;10.20;99.90
5392;DHT22;2719;53.624;9.786;2023-03-19T05:34:47;10.20;99.90
5392;DHT22;2719;53.624;9.786;2023-03-19T05:37:15;10.20;99.90
5392;DHT22;2719;53.624;9.786;2023-03-19T05:39:41;10.00;99.90
5392;DHT22;2719;53.624;9.786;2023-03-19T05:42:08;10.00;99.90
5392;DHT22;2719;53.624;9.786;2023-03-19T05:44:35;10.00;99.90
5392;DHT22;2719;53.624;9.786;2023-03-19T05:47:02;10.10;99.90
5392;DHT22;2719;53.624;9.786;2023-03-19T05:49:29;10.10;99.90
5392;DHT22;2719;53.624;9.786;2023-03-19T05:51:55;10.10;99.90
5392;DHT22;2719;53.624;9.786;2023-03-19T05:54:24;10.10;99.90
5392;DHT22;2719;53.624;9.786;2023-03-19T05:56:50;10.10;99.90
5392;DHT22;2719;53.624;9.786;2023-03-19T05:59:17;10.20;99.90
5392;DHT22;2719;53.624;9.786;2023-03-19T06:01:44;10.20;99.90
5392;DHT22;2719;53.624;9.786;2023-03-19T06:04:10;10.20;99.90
5392;DHT22;2719;53.624;9.786;2023-03-19T06:06:37;10.20;99.90
5392;DHT22;2719;53.624;9.786;2023-03-19T06:09:03;10.20;99.90
5392;DHT22;2719;53.624;9.786;2023-03-19T06:11:32;10.20;99.90
5392;DHT22;2719;53.624;9.786;2023-03-19T06:13:58;10.20;99.90
5392;DHT22;2719;53.624;9.786;2023-03-19T06:16:25;10.20;99.90
5392;DHT22;2719;53.624;9.786;2023-03-19T06:18:52;10.20;99.90
5392;DHT22;2719;53.624;9.786;2023-03-19T06:21:19;10.20;99.90
5392;DHT22;2719;53.624;9.786;2023-03-19T06:23:45;10.30;99.90
5392;DHT22;2719;53.624;9.786;2023-03-19T06:26:12;10.30;99.90
5392;DHT22;2719;53.624;9.786;2023-03-19T06:28:40;10.30;99.90
5392;DHT22;2719;53.624;9.786;2023-03-19T06:31:07;10.30;99.90
5392;DHT22;2719;53.624;9.786;2023-03-19T06:33:33;10.30;99.90
5392;DHT22;2719;53.624;9.786;2023-03-19T06:36:01;10.40;99.90
5392;DHT22;2719;53.624;9.786;2023-03-19T06:38:28;10.40;99.90
5392;DHT22;2719;53.624;9.786;2023-03-19T06:40:54;10.40;99.90
5392;DHT22;2719;53.624;9.786;2023-03-19T06:43:21;10.50;99.90
5392;DHT22;2719;53.624;9.786;2023-03-19T06:45:49;10.60;99.90
5392;DHT22;2719;53.624;9.786;2023-03-19T06:48:16;10.60;99.90
5392;DHT22;2719;53.624;9.786;2023-03-19T06:50:44;10.70;99.90
5392;DHT22;2719;53.624;9.786;2023-03-19T06:53:11;10.70;99.90
5392;DHT22;2719;53.624;9.786;2023-03-19T06:55:38;10.80;99.90
5392;DHT22;2719;53.624;9.786;2023-03-19T06:58:05;10.90;99.90
5392;DHT22;2719;53.624;9.786;2023-03-19T07:00:32;11.00;99.90
5392;DHT22;2719;53.624;9.786;2023-03-19T07:03:00;11.00;99.90
5392;DHT22;2719;53.624;9.786;2023-03-19T07:05:27;11.00;99.90
5392;DHT22;2719;53.624;9.786;2023-03-19T07:07:54;11.00;99.90
5392;DHT22;2719;53.624;9.786;2023-03-19T07:10:21;11.10;99.90
5392;DHT22;2719;53.624;9.786;2023-03-19T07:12:47;11.10;99.90
5392;DHT22;2719;53.624;9.786;2023-03-19T07:15:14;11.20;99.90
5392;DHT22;2719;53.624;9.786;2023-03-19T07:17:42;11.20;99.90
5392;DHT22;2719;53.624;9.786;2023-03-19T07:20:13;11.20;99.90
5392;DHT22;2719;53.624;9.786;2023-03-19T07:22:40;11.20;99.90
5392;DHT22;2719;53.624;9.786;2023-03-19T07:25:07;11.10;99.90
5392;DHT22;2719;53.624;9.786;2023-03-19T07:27:35;11.20;99.90
5392;DHT22;2719;53.624;9.786;2023-03-19T07:30:01;11.20;99.90
5392;DHT22;2719;53.624;9.786;2023-03-19T07:32:28;11.20;99.90
5392;DHT22;2719;53.624;9.786;2023-03-19T07:34:55;11.20;99.90
5392;DHT22;2719;53.624;9.786;2023-03-19T07:37:24;11.20;99.90
5392;DHT22;2719;53.624;9.786;2023-03-19T07:39:50;11.30;99.90
5392;DHT22;2719;53.624;9.786;2023-03-19T07:42:17;11.20;99.90
5392;DHT22;2719;53.624;9.786;2023-03-19T07:44:43;11.30;99.90
5392;DHT22;2719;53.624;9.786;2023-03-19T07:47:10;11.30;99.90
5392;DHT22;2719;53.624;9.786;2023-03-19T07:49:37;11.40;99.90
5392;DHT22;2719;53.624;9.786;2023-03-19T07:52:04;11.40;99.90
5392;DHT22;2719;53.624;9.786;2023-03-19T07:54:32;11.50;99.90
5392;DHT22;2719;53.624;9.786;2023-03-19T07:56:59;11.50;99.90
5392;DHT22;2719;53.624;9.786;2023-03-19T07:59:25;11.60;99.90
5392;DHT22;2719;53.624;9.786;2023-03-19T08:01:52;11.70;99.90
5392;DHT22;2719;53.624;9.786;2023-03-19T08:04:19;11.70;99.90
5392;DHT22;2719;53.624;9.786;2023-03-19T08:06:45;11.70;99.90
5392;DHT22;2719;53.624;9.786;2023-03-19T08:09:12;11.70;99.90
5392;DHT22;2719;53.624;9.786;2023-03-19T08:11:40;11.60;99.90
5392;DHT22;2719;53.624;9.786;2023-03-19T08:14:07;11.70;99.90
5392;DHT22;2719;53.624;9.786;2023-03-19T08:16:33;11.80;99.90
5392;DHT22;2719;53.624;9.786;2023-03-19T08:19:00;11.80;99.90
5392;DHT22;2719;53.624;9.786;2023-03-19T08:21:27;11.90;99.90
5392;DHT22;2719;53.624;9.786;2023-03-19T08:23:55;12.00;99.90
5392;DHT22;2719;53.624;9.786;2023-03-19T08:26:21;12.00;99.90
5392;DHT22;2719;53.624;9.786;2023-03-19T08:28:49;12.10;99.90
5392;DHT22;2719;53.624;9.786;2023-03-19T08:31:16;12.10;99.90
5392;DHT22;2719;53.624;9.786;2023-03-19T08:33:43;12.20;99.90
5392;DHT22;2719;53.624;9.786;2023-03-19T08:36:11;12.20;99.90
5392;DHT22;2719;53.624;9.786;2023-03-19T08:38:39;12.20;99.90
5392;DHT22;2719;53.624;9.786;2023-03-19T08:41:06;12.30;99.90
5392;DHT22;2719;53.624;9.786;2023-03-19T08:43:33;12.40;99.90
5392;DHT22;2719;53.624;9.786;2023-03-19T08:46:02;12.50;99.90
5392;DHT22;2719;53.624;9.786;2023-03-19T08:48:29;12.60;99.90
5392;DHT22;2719;53.624;9.786;2023-03-19T08:50:58;12.60;99.90
5392;DHT22;2719;53.624;9.786;2023-03-19T08:53:26;12.70;99.90
5392;DHT22;2719;53.624;9.786;2023-03-19T08:55:53;12.80;99.90
5392;DHT22;2719;53.624;9.786;2023-03-19T08:58:21;12.90;99.90
5392;DHT22;2719;53.624;9.786;2023-03-19T09:00:47;13.00;99.90
5392;DHT22;2719;53.624;9.786;2023-03-19T09:03:16;13.10;99.90
5392;DHT22;2719;53.624;9.786;2023-03-19T09:05:43;13.10;99.90
5392;DHT22;2719;53.624;9.786;2023-03-19T09:08:10;13.10;99.90
5392;DHT22;2719;53.624;9.786;2023-03-19T09:10:37;13.20;99.90
5392;DHT22;2719;53.624;9.786;2023-03-19T09:13:04;13.30;99.90
5392;DHT22;2719;53.624;9.786;2023-03-19T09:15:31;13.30;99.90
5392;DHT22;2719;53.624;9.786;2023-03-19T09:17:58;13.30;99.90
5392;DHT22;2719;53.624;9.786;2023-03-19T09:20:26;13.40;99.90
5392;DHT22;2719;53.624;9.786;2023-03-19T09:22:53;13.40;99.90
5392;DHT22;2719;53.624;9.786;2023-03-19T09:25:19;13.40;99.90
5392;DHT22;2719;53.624;9.786;2023-03-19T09:27:46;13.40;99.90
5392;DHT22;2719;53.624;9.786;2023-03-19T09:30:13;13.40;99.90
5392;DHT22;2719;53.624;9.786;2023-03-19T09:32:40;13.30;99.90
5392;DHT22;2719;53.624;9.786;2023-03-19T09:35:07;13.30;99.90
5392;DHT22;2719;53.624;9.786;2023-03-19T09:37:35;13.20;99.90
5392;DHT22;2719;53.624;9.786;2023-03-19T09:40:02;13.20;99.90
5392;DHT22;2719;53.624;9.786;2023-03-19T09:42:44;13.10;99.90
5392;DHT22;2719;53.624;9.786;2023-03-19T09:45:16;13.20;99.90
5392;DHT22;2719;53.624;9.786;2023-03-19T09:47:45;13.20;99.90
5392;DHT22;2719;53.624;9.786;2023-03-19T09:50:15;13.20;99.90
5392;DHT22;2719;53.624;9.786;2023-03-19T09:52:46;13.20;99.90
5392;DHT22;2719;53.624;9.786;2023-03-19T09:55:33;13.30;99.90
5392;DHT22;2719;53.624;9.786;2023-03-19T09:58:01;13.30;99.90
5392;DHT22;2719;53.624;9.786;2023-03-19T10:00:35;13.40;99.90
5392;DHT22;2719;53.624;9.786;2023-03-19T10:03:09;13.30;99.90
5392;DHT22;2719;53.624;9.786;2023-03-19T10:05:43;13.40;99.90
5392;DHT22;2719;53.624;9.786;2023-03-19T10:08:32;13.50;99.90
5392;DHT22;2719;53.624;9.786;2023-03-19T10:11:15;13.50;99.90
5392;DHT22;2719;53.624;9.786;2023-03-19T10:13:55;13.50;99.90
5392;DHT22;2719;53.624;9.786;2023-03-19T10:16:27;13.60;99.90
5392;DHT22;2719;53.624;9.786;2023-03-19T10:18:57;13.70;99.90
5392;DHT22;2719;53.624;9.786;2023-03-19T10:21:27;13.70;99.90
5392;DHT22;2719;53.624;9.786;2023-03-19T10:24:00;13.80;99.90
5392;DHT22;2719;53.624;9.786;2023-03-19T10:26:29;13.90;99.90
5392;DHT22;2719;53.624;9.786;2023-03-19T10:29:03;14.10;99.90
5392;DHT22;2719;53.624;9.786;2023-03-19T10:31:41;14.40;99.90
5392;DHT22;2719;53.624;9.786;2023-03-19T10:34:17;14.60;99.90
5392;DHT22;2719;53.624;9.786;2023-03-19T10:36:47;14.80;99.90
5392;DHT22;2719;53.624;9.786;2023-03-19T10:39:15;14.80;99.90
5392;DHT22;2719;53.624;9.786;2023-03-19T10:41:48;14.80;99.90
5392;DHT22;2719;53.624;9.786;2023-03-19T10:44:27;14.80;99.90
5392;DHT22;2719;53.624;9.786;2023-03-19T10:47:08;14.70;99.90
5392;DHT22;2719;53.624;9.786;2023-03-19T10:49:35;14.70;99.90
5392;DHT22;2719;53.624;9.786;2023-03-19T10:52:02;14.70;99.90
5392;DHT22;2719;53.624;9.786;2023-03-19T10:54:31;14.80;99.90
5392;DHT22;2719;53.624;9.786;2023-03-19T10:56:59;14.80;99.90
5392;DHT22;2719;53.624;9.786;2023-03-19T10:59:31;14.80;99.90
5392;DHT22;2719;53.624;9.786;2023-03-19T11:02:02;14.90;99.90
5392;DHT22;2719;53.624;9.786;2023-03-19T11:04:29;14.90;99.90
5392;DHT22;2719;53.624;9.786;2023-03-19T11:07:02;15.00;99.90
5392;DHT22;2719;53.624;9.786;2023-03-19T11:09:36;15.20;99.90
5392;DHT22;2719;53.624;9.786;2023-03-19T11:12:16;15.30;99.90
5392;DHT22;2719;53.624;9.786;2023-03-19T11:14:45;15.50;99.90
5392;DHT22;2719;53.624;9.786;2023-03-19T11:17:19;15.80;99.90
5392;DHT22;2719;53.624;9.786;2023-03-19T11:19:49;15.90;99.90
5392;DHT22;2719;53.624;9.786;2023-03-19T11:22:19;16.00;99.90
5392;DHT22;2719;53.624;9.786;2023-03-19T11:24:53;16.20;99.90
5392;DHT22;2719;53.624;9.786;2023-03-19T11:27:29;16.20;99.90
5392;DHT22;2719;53.624;9.786;2023-03-19T11:29:56;16.10;99.90
5392;DHT22;2719;53.624;9.786;2023-03-19T11:35:20;16.00;99.90
5392;DHT22;2719;53.624;9.786;2023-03-19T11:37:53;15.90;99.90
5392;DHT22;2719;53.624;9.786;2023-03-19T11:40:29;15.80;99.90
5392;DHT22;2719;53.624;9.786;2023-03-19T11:43:25;15.80;99.90
5392;DHT22;2719;53.624;9.786;2023-03-19T11:46:01;15.60;99.90
5392;DHT22;2719;53.624;9.786;2023-03-19T11:48:41;15.60;99.90
5392;DHT22;2719;53.624;9.786;2023-03-19T11:51:18;15.60;99.90
5392;DHT22;2719;53.624;9.786;2023-03-19T11:53:57;15.60;99.90
5392;DHT22;2719;53.624;9.786;2023-03-19T11:56:31;15.50;99.90
5392;DHT22;2719;53.624;9.786;2023-03-19T11:59:12;15.40;99.90
5392;DHT22;2719;53.624;9.786;2023-03-19T12:01:59;15.50;99.90
5392;DHT22;2719;53.624;9.786;2023-03-19T12:04:41;15.50;99.90
5392;DHT22;2719;53.624;9.786;2023-03-19T12:07:19;15.50;99.90
5392;DHT22;2719;53.624;9.786;2023-03-19T12:09:58;15.50;99.90
5392;DHT22;2719;53.624;9.786;2023-03-19T12:12:33;15.50;99.90
5392;DHT22;2719;53.624;9.786;2023-03-19T12:15:11;15.50;99.90
5392;DHT22;2719;53.624;9.786;2023-03-19T12:17:51;15.40;99.90
5392;DHT22;2719;53.624;9.786;2023-03-19T12:20:38;15.40;99.90
5392;DHT22;2719;53.624;9.786;2023-03-19T12:23:12;15.50;99.90
5392;DHT22;2719;53.624;9.786;2023-03-19T12:25:53;15.40;99.90
5392;DHT22;2719;53.624;9.786;2023-03-19T12:28:31;15.50;99.90
5392;DHT22;2719;53.624;9.786;2023-03-19T12:31:12;15.40;99.90
5392;DHT22;2719;53.624;9.786;2023-03-19T12:33:47;15.40;99.90
5392;DHT22;2719;53.624;9.786;2023-03-19T12:36:18;15.30;99.90
5392;DHT22;2719;53.624;9.786;2023-03-19T12:38:47;15.30;99.90
5392;DHT22;2719;53.624;9.786;2023-03-19T12:41:18;15.30;99.90
5392;DHT22;2719;53.624;9.786;2023-03-19T12:43:53;15.30;99.90
5392;DHT22;2719;53.624;9.786;2023-03-19T12:46:25;15.30;99.90
5392;DHT22;2719;53.624;9.786;2023-03-19T12:48:55;15.20;99.90
5392;DHT22;2719;53.624;9.786;2023-03-19T12:51:25;15.20;99.90
5392;DHT22;2719;53.624;9.786;2023-03-19T12:53:55;15.20;99.90
5392;DHT22;2719;53.624;9.786;2023-03-19T12:56:30;15.20;99.90
5392;DHT22;2719;53.624;9.786;2023-03-19T12:59:02;15.10;99.90
5392;DHT22;2719;53.624;9.786;2023-03-19T13:01:34;15.10;99.90
5392;DHT22;2719;53.624;9.786;2023-03-19T13:04:06;15.10;99.90
5392;DHT22;2719;53.624;9.786;2023-03-19T13:06:36;15.10;99.90
5392;DHT22;2719;53.624;9.786;2023-03-19T13:09:08;15.10;99.90
5392;DHT22;2719;53.624;9.786;2023-03-19T13:11:44;15.20;99.90
5392;DHT22;2719;53.624;9.786;2023-03-19T13:14:18;15.20;99.90
5392;DHT22;2719;53.624;9.786;2023-03-19T13:16:53;15.10;99.90
5392;DHT22;2719;53.624;9.786;2023-03-19T13:19:27;15.10;99.90
5392;DHT22;2719;53.624;9.786;2023-03-19T13:21:58;15.10;99.90
5392;DHT22;2719;53.624;9.786;2023-03-19T13:24:27;15.10;99.90
5392;DHT22;2719;53.624;9.786;2023-03-19T13:26:57;15.10;99.90
5392;DHT22;2719;53.624;9.786;2023-03-19T13:29:27;15.10;99.90
5392;DHT22;2719;53.624;9.786;2023-03-19T13:31:59;15.10;99.90
5392;DHT22;2719;53.624;9.786;2023-03-19T13:34:28;15.10;99.90
5392;DHT22;2719;53.624;9.786;2023-03-19T13:37:00;15.20;99.90
5392;DHT22;2719;53.624;9.786;2023-03-19T13:39:32;15.20;99.90
5392;DHT22;2719;53.624;9.786;2023-03-19T13:42:33;15.20;99.90
5392;DHT22;2719;53.624;9.786;2023-03-19T13:45:28;15.20;99.90
5392;DHT22;2719;53.624;9.786;2023-03-19T13:47:56;15.20;99.90
5392;DHT22;2719;53.624;9.786;2023-03-19T13:50:28;15.20;99.90
5392;DHT22;2719;53.624;9.786;2023-03-19T13:53:20;15.20;99.90
5392;DHT22;2719;53.624;9.786;2023-03-19T13:55:53;15.40;99.90
5392;DHT22;2719;53.624;9.786;2023-03-19T13:58:22;15.40;99.90
5392;DHT22;2719;53.624;9.786;2023-03-19T14:01:36;15.60;99.90
5392;DHT22;2719;53.624;9.786;2023-03-19T14:04:04;15.70;99.90
5392;DHT22;2719;53.624;9.786;2023-03-19T14:06:34;15.90;99.90
5392;DHT22;2719;53.624;9.786;2023-03-19T14:09:02;16.10;99.90
5392;DHT22;2719;53.624;9.786;2023-03-19T14:11:30;16.40;99.90
5392;DHT22;2719;53.624;9.786;2023-03-19T14:14:01;16.50;99.90
5392;DHT22;2719;53.624;9.786;2023-03-19T14:16:32;16.40;99.90
5392;DHT22;2719;53.624;9.786;2023-03-19T14:19:01;16.30;99.90
5392;DHT22;2719;53.624;9.786;2023-03-19T14:21:39;16.40;99.90
5392;DHT22;2719;53.624;9.786;2023-03-19T14:24:26;16.30;99.90
5392;DHT22;2719;53.624;9.786;2023-03-19T14:26:55;16.20;99.90
5392;DHT22;2719;53.624;9.786;2023-03-19T14:29:24;16.10;99.90
5392;DHT22;2719;53.624;9.786;2023-03-19T14:31:53;16.00;99.90
5392;DHT22;2719;53.624;9.786;2023-03-19T14:34:24;15.90;99.90
5392;DHT22;2719;53.624;9.786;2023-03-19T14:36:57;15.80;99.90
5392;DHT22;2719;53.624;9.786;2023-03-19T14:39:27;15.80;99.90
5392;DHT22;2719;53.624;9.786;2023-03-19T14:42:00;15.80;99.90
5392;DHT22;2719;53.624;9.786;2023-03-19T14:45:19;15.70;99.90
5392;DHT22;2719;53.624;9.786;2023-03-19T14:48:19;15.70;99.90
5392;DHT22;2719;53.624;9.786;2023-03-19T14:51:20;15.60;99.90
5392;DHT22;2719;53.624;9.786;2023-03-19T14:53:53;15.60;99.90
5392;DHT22;2719;53.624;9.786;2023-03-19T14:56:25;15.40;99.90
5392;DHT22;2719;53.624;9.786;2023-03-19T14:58:53;15.30;99.90
5392;DHT22;2719;53.624;9.786;2023-03-19T15:01:21;15.30;99.90
5392;DHT22;2719;53.624;9.786;2023-03-19T15:03:54;15.20;99.90
5392;DHT22;2719;53.624;9.786;2023-03-19T15:06:22;15.20;99.90
5392;DHT22;2719;53.624;9.786;2023-03-19T15:08:49;15.20;99.90
5392;DHT22;2719;53.624;9.786;2023-03-19T15:11:28;15.20;99.90
5392;DHT22;2719;53.624;9.786;2023-03-19T15:14:12;15.10;99.90
5392;DHT22;2719;53.624;9.786;2023-03-19T15:16:47;15.10;99.90
5392;DHT22;2719;53.624;9.786;2023-03-19T15:19:24;15.00;99.90
5392;DHT22;2719;53.624;9.786;2023-03-19T15:22:02;14.90;99.90
5392;DHT22;2719;53.624;9.786;2023-03-19T15:24:29;14.90;99.90
5392;DHT22;2719;53.624;9.786;2023-03-19T15:26:55;15.00;99.90
5392;DHT22;2719;53.624;9.786;2023-03-19T15:29:29;14.80;99.90
5392;DHT22;2719;53.624;9.786;2023-03-19T15:31:56;14.70;99.90
5392;DHT22;2719;53.624;9.786;2023-03-19T15:34:25;14.70;99.90
5392;DHT22;2719;53.624;9.786;2023-03-19T15:36:55;14.70;99.90
5392;DHT22;2719;53.624;9.786;2023-03-19T15:39:26;14.60;99.90
5392;DHT22;2719;53.624;9.786;2023-03-19T15:41:55;14.60;99.90
5392;DHT22;2719;53.624;9.786;2023-03-19T15:44:27;14.50;99.90
5392;DHT22;2719;53.624;9.786;2023-03-19T15:46:59;14.50;99.90
5392;DHT22;2719;53.624;9.786;2023-03-19T15:49:31;14.50;99.90
5392;DHT22;2719;53.624;9.786;2023-03-19T15:52:01;14.50;99.90
5392;DHT22;2719;53.624;9.786;2023-03-19T15:54:31;14.60;99.90
5392;DHT22;2719;53.624;9.786;2023-03-19T15:56:58;14.70;99.90
5392;DHT22;2719;53.624;9.786;2023-03-19T15:59:27;14.90;99.90
5392;DHT22;2719;53.624;9.786;2023-03-19T16:01:58;15.00;99.90
5392;DHT22;2719;53.624;9.786;2023-03-19T16:04:26;15.10;99.90
5392;DHT22;2719;53.624;9.786;2023-03-19T16:06:56;15.10;99.90
5392;DHT22;2719;53.624;9.786;2023-03-19T16:09:24;15.00;99.90
5392;DHT22;2719;53.624;9.786;2023-03-19T16:11:53;15.00;99.90
5392;DHT22;2719;53.624;9.786;2023-03-19T16:14:25;15.10;99.90
5392;DHT22;2719;53.624;9.786;2023-03-19T16:16:52;15.20;99.90
5392;DHT22;2719;53.624;9.786;2023-03-19T16:19:33;15.30;99.90
5392;DHT22;2719;53.624;9.786;2023-03-19T16:22:09;15.40;99.90
5392;DHT22;2719;53.624;9.786;2023-03-19T16:24:39;15.30;99.90